createdAt,value
2022-08-03T00:01:33.582Z,19.84
2022-08-03T00:04:00.231Z,19.86
2022-08-03T00:06:26.700Z,19.83
2022-08-03T00:08:53.408Z,19.80
2022-08-03T00:11:20.295Z,19.79
2022-08-03T00:13:47.088Z,19.80
2022-08-03T00:16:13.649Z,19.81
2022-08-03T00:18:40.394Z,19.88
2022-08-03T00:21:07.299Z,19.89
2022-08-03T00:23:52.403Z,19.86
2022-08-03T00:26:20.911Z,19.84
2022-08-03T00:28:47.873Z,19.79
2022-08-03T00:31:14.605Z,19.78
2022-08-03T00:33:58.936Z,19.77
2022-08-03T00:36:28.299Z,19.82
2022-08-03T00:38:55.555Z,19.84
2022-08-03T00:41:22.215Z,19.76
2022-08-03T00:43:48.748Z,19.73
2022-08-03T00:46:20.633Z,19.71
2022-08-03T00:48:52.321Z,19.75
2022-08-03T00:51:20.732Z,19.79
2022-08-03T00:53:47.501Z,19.80
2022-08-03T00:56:15.364Z,19.69
2022-08-03T00:58:43.701Z,19.69
2022-08-03T01:01:10.580Z,19.64
2022-08-03T01:03:37.384Z,19.62
2022-08-03T01:06:27.205Z,19.58
2022-08-03T01:09:11.599Z,19.59
2022-08-03T01:12:00.485Z,19.60
2022-08-03T01:14:34.544Z,19.61
2022-08-03T01:17:15.478Z,19.59
2022-08-03T01:19:54.085Z,19.59
2022-08-03T01:22:50.155Z,19.50
2022-08-03T01:25:40.186Z,19.47
2022-08-03T01:28:21.906Z,19.38
2022-08-03T01:30:50.021Z,19.29
2022-08-03T01:33:20.854Z,19.24
2022-08-03T01:35:52.387Z,19.22
2022-08-03T01:38:24.824Z,19.21
2022-08-03T01:40:54.871Z,19.15
2022-08-03T01:44:27.622Z,19.15
2022-08-03T01:46:15.939Z,19.16
2022-08-03T01:48:44.495Z,19.19
2022-08-03T01:51:11.997Z,19.17
2022-08-03T01:53:42.906Z,19.15
2022-08-03T01:56:10.729Z,19.16
2022-08-03T01:58:38.514Z,19.13
2022-08-03T02:01:06.244Z,19.11
2022-08-03T02:03:37.337Z,19.10
2022-08-03T02:07:00.488Z,19.14
2022-08-03T02:08:54.744Z,19.13
2022-08-03T02:11:21.614Z,19.08
2022-08-03T02:13:50.556Z,19.01
2022-08-03T02:16:19.271Z,18.93
2022-08-03T02:18:47.949Z,18.85
2022-08-03T02:21:55.798Z,18.80
2022-08-03T02:24:02.722Z,18.78
2022-08-03T02:26:30.720Z,18.78
2022-08-03T02:29:01.974Z,18.82
2022-08-03T02:31:30.801Z,18.78
2022-08-03T02:34:03.286Z,18.73
2022-08-03T02:36:32.216Z,18.72
2022-08-03T02:39:00.871Z,18.74
2022-08-03T02:41:41.732Z,18.72
2022-08-03T02:44:10.968Z,18.71
2022-08-03T02:46:45.405Z,18.68
2022-08-03T02:49:41.185Z,18.68
2022-08-03T02:52:02.410Z,18.67
2022-08-03T02:54:30.716Z,18.64
2022-08-03T02:56:58.622Z,18.64
2022-08-03T02:59:26.426Z,18.61
2022-08-03T03:01:55.129Z,18.58
2022-08-03T03:04:22.561Z,18.55
2022-08-03T03:06:54.619Z,18.56
2022-08-03T03:09:22.491Z,18.56
2022-08-03T03:11:50.768Z,18.54
2022-08-03T03:14:18.459Z,18.53
2022-08-03T03:17:02.420Z,18.51
2022-08-03T03:19:32.489Z,18.49
2022-08-03T03:22:02.159Z,18.46
2022-08-03T03:24:29.965Z,18.44
2022-08-03T03:26:58.146Z,18.38
2022-08-03T03:29:25.454Z,18.33
2022-08-03T03:31:52.468Z,18.34
2022-08-03T03:34:19.453Z,18.32
2022-08-03T03:36:46.145Z,18.33
2022-08-03T03:39:14.287Z,18.32
2022-08-03T03:41:43.450Z,18.30
2022-08-03T03:44:10.305Z,18.32
2022-08-03T03:46:38.768Z,18.30
2022-08-03T03:49:07.180Z,18.28
2022-08-03T03:51:33.788Z,18.26
2022-08-03T03:54:03.025Z,18.23
2022-08-03T03:56:29.595Z,18.20
2022-08-03T03:58:58.689Z,18.17
2022-08-03T04:01:25.644Z,18.19
2022-08-03T04:03:52.180Z,18.22
2022-08-03T04:06:37.800Z,18.21
2022-08-03T04:09:22.899Z,18.23
2022-08-03T04:11:52.535Z,18.20
2022-08-03T04:14:36.247Z,18.20
2022-08-03T04:17:07.548Z,18.19
2022-08-03T04:19:42.268Z,18.17
2022-08-03T04:22:16.676Z,18.20
2022-08-03T04:24:48.509Z,18.21
2022-08-03T04:27:27.396Z,18.21
2022-08-03T04:29:56.943Z,18.24
2022-08-03T04:32:28.744Z,18.25
2022-08-03T04:34:55.921Z,18.29
2022-08-03T04:37:43.733Z,18.34
2022-08-03T04:40:15.011Z,18.36
2022-08-03T04:42:44.196Z,18.39
2022-08-03T04:45:15.346Z,18.46
2022-08-03T04:47:42.719Z,18.49
2022-08-03T04:50:12.925Z,18.49
2022-08-03T04:52:40.145Z,18.50
2022-08-03T04:55:07.208Z,18.50
2022-08-03T04:57:33.636Z,18.53
2022-08-03T05:00:03.196Z,18.57
2022-08-03T05:02:31.872Z,18.61
2022-08-03T05:04:59.064Z,18.63
2022-08-03T05:07:25.670Z,18.62
2022-08-03T05:10:01.413Z,18.68
2022-08-03T05:12:32.740Z,18.79
2022-08-03T05:15:00.007Z,18.81
2022-08-03T05:17:26.709Z,18.87
2022-08-03T05:19:53.151Z,18.95
2022-08-03T05:22:20.138Z,19.01
2022-08-03T05:24:46.849Z,19.02
2022-08-03T05:27:19.068Z,19.04
2022-08-03T05:29:50.245Z,19.09
2022-08-03T05:32:18.236Z,19.19
2022-08-03T05:34:44.972Z,19.48
2022-08-03T05:37:11.420Z,19.87
2022-08-03T05:39:38.418Z,20.29
2022-08-03T05:42:04.928Z,20.57
2022-08-03T05:44:31.803Z,21.15
2022-08-03T05:46:59.210Z,22.18
2022-08-03T05:49:25.684Z,22.88
2022-08-03T05:52:00.457Z,23.12
2022-08-03T05:54:55.619Z,24.42
2022-08-03T05:57:24.844Z,24.88
2022-08-03T05:59:54.581Z,24.05
2022-08-03T06:02:25.480Z,23.78
2022-08-03T06:04:51.881Z,24.12
2022-08-03T06:07:18.573Z,25.20
2022-08-03T06:10:35.078Z,26.18
2022-08-03T06:12:31.547Z,27.51
2022-08-03T06:14:58.018Z,27.20
2022-08-03T06:17:24.527Z,27.65
2022-08-03T06:19:53.819Z,28.71
2022-08-03T06:22:20.651Z,28.74
2022-08-03T06:24:53.479Z,27.73
2022-08-03T06:27:30.316Z,27.79
2022-08-03T06:30:05.083Z,28.00
2022-08-03T06:32:31.612Z,27.82
2022-08-03T06:34:58.035Z,27.92
2022-08-03T06:37:24.679Z,29.23
2022-08-03T06:39:51.240Z,29.99
2022-08-03T06:42:18.125Z,30.92
2022-08-03T06:44:47.087Z,30.74
2022-08-03T06:47:13.555Z,30.71
2022-08-03T06:50:12.619Z,30.86
2022-08-03T06:52:38.731Z,32.24
2022-08-03T06:55:06.350Z,31.82
2022-08-03T06:57:33.079Z,31.00
2022-08-03T07:00:10.362Z,30.27
2022-08-03T07:02:40.018Z,29.94
2022-08-03T07:05:07.750Z,28.80
2022-08-03T07:07:34.330Z,27.95
2022-08-03T07:10:00.939Z,26.87
2022-08-03T07:12:30.319Z,26.17
2022-08-03T07:15:01.308Z,25.79
2022-08-03T07:17:34.677Z,25.83
2022-08-03T07:20:04.165Z,25.41
2022-08-03T07:22:30.664Z,25.12
2022-08-03T07:24:57.264Z,25.11
2022-08-03T07:27:27.284Z,24.99
2022-08-03T07:30:00.029Z,24.90
2022-08-03T07:32:28.480Z,25.62
2022-08-03T07:35:00.304Z,26.32
2022-08-03T07:37:27.580Z,27.73
2022-08-03T07:39:54.131Z,29.17
2022-08-03T07:42:20.746Z,30.25
2022-08-03T07:44:47.154Z,31.17
2022-08-03T07:47:22.671Z,30.58
2022-08-03T07:49:49.849Z,29.98
2022-08-03T07:52:34.618Z,30.51
2022-08-03T07:55:01.020Z,31.15
2022-08-03T07:57:27.636Z,31.56
2022-08-03T08:00:01.845Z,31.50
2022-08-03T08:02:29.237Z,31.61
2022-08-03T08:04:55.636Z,31.87
2022-08-03T08:07:22.304Z,32.08
2022-08-03T08:09:48.685Z,32.44
2022-08-03T08:12:16.105Z,32.73
2022-08-03T08:14:45.850Z,32.83
2022-08-03T08:17:12.961Z,32.77
2022-08-03T08:19:39.364Z,32.98
2022-08-03T08:22:18.252Z,33.29
2022-08-03T08:24:50.412Z,33.14
2022-08-03T08:27:18.872Z,32.93
2022-08-03T08:29:47.974Z,32.74
2022-08-03T08:32:21.790Z,32.81
2022-08-03T08:34:48.344Z,33.12
2022-08-03T08:37:15.016Z,33.15
2022-08-03T08:39:41.440Z,33.44
2022-08-03T08:42:08.561Z,33.37
2022-08-03T08:44:35.040Z,33.39
2022-08-03T08:47:03.234Z,33.12
2022-08-03T08:49:29.927Z,33.04
2022-08-03T08:52:01.392Z,32.96
2022-08-03T08:54:29.744Z,33.18
2022-08-03T08:56:57.649Z,33.26
2022-08-03T08:59:25.004Z,32.99
2022-08-03T09:01:51.420Z,33.01
2022-08-03T09:04:18.160Z,33.13
2022-08-03T09:06:58.710Z,33.42
2022-08-03T09:10:12.343Z,33.83
2022-08-03T09:12:39.050Z,33.54
2022-08-03T09:15:25.248Z,33.17
2022-08-03T09:17:53.811Z,33.09
2022-08-03T09:20:22.268Z,32.99
2022-08-03T09:23:19.041Z,32.55
2022-08-03T09:26:00.061Z,32.20
2022-08-03T09:28:58.848Z,32.70
2022-08-03T09:31:36.278Z,32.09
2022-08-03T09:34:05.389Z,32.08
2022-08-03T09:36:48.524Z,32.27
2022-08-03T09:39:19.149Z,32.82
2022-08-03T09:42:06.525Z,32.91
2022-08-03T09:44:37.857Z,33.02
2022-08-03T09:47:06.133Z,32.87
2022-08-03T09:49:32.856Z,32.62
2022-08-03T09:52:37.929Z,32.69
2022-08-03T09:55:02.428Z,32.71
2022-08-03T09:57:32.176Z,32.51
2022-08-03T10:00:16.378Z,32.47
2022-08-03T10:02:44.583Z,32.89
2022-08-03T10:05:19.421Z,33.01
2022-08-03T10:07:48.348Z,33.75
2022-08-03T10:10:30.821Z,33.95
2022-08-03T10:13:00.226Z,33.98
2022-08-03T10:16:21.427Z,34.43
2022-08-03T10:18:13.832Z,34.09
2022-08-03T10:20:51.620Z,33.67
2022-08-03T10:23:20.073Z,34.24
2022-08-03T10:25:49.433Z,34.54
2022-08-03T10:28:20.066Z,34.67
2022-08-03T10:30:50.856Z,34.29
2022-08-03T10:33:51.464Z,34.09
2022-08-03T10:36:07.361Z,34.45
2022-08-03T10:38:40.449Z,34.20
2022-08-03T10:41:08.752Z,34.35
2022-08-03T10:43:49.209Z,34.51
2022-08-03T10:46:18.655Z,34.25
2022-08-03T10:48:46.390Z,34.18
2022-08-03T10:51:13.652Z,34.21
2022-08-03T10:53:54.884Z,33.67
2022-08-03T10:56:52.622Z,34.00
2022-08-03T10:59:39.731Z,34.00
2022-08-03T11:02:09.859Z,34.05
2022-08-03T11:04:36.381Z,33.83
2022-08-03T11:07:22.471Z,33.55
2022-08-03T11:09:54.685Z,33.19
2022-08-03T11:12:29.993Z,32.95
2022-08-03T11:15:01.008Z,33.07
2022-08-03T11:17:27.831Z,32.95
2022-08-03T11:19:56.774Z,33.30
2022-08-03T11:22:25.683Z,33.56
2022-08-03T11:24:54.317Z,33.67
2022-08-03T11:27:23.323Z,33.60
2022-08-03T11:30:18.774Z,33.08
2022-08-03T11:32:48.472Z,32.93
2022-08-03T11:35:19.833Z,33.19
2022-08-03T11:38:03.425Z,33.02
2022-08-03T11:40:49.287Z,33.45
2022-08-03T11:43:31.667Z,33.89
2022-08-03T11:46:28.546Z,33.76
2022-08-03T11:49:09.986Z,33.91
2022-08-03T11:51:38.030Z,34.07
2022-08-03T11:54:06.477Z,34.16
2022-08-03T11:56:50.219Z,34.27
2022-08-03T11:59:21.881Z,34.29
2022-08-03T12:01:49.032Z,34.14
2022-08-03T12:04:16.357Z,34.23
2022-08-03T12:06:58.773Z,34.60
2022-08-03T12:09:25.175Z,34.41
2022-08-03T12:11:56.229Z,34.05
2022-08-03T12:14:48.748Z,34.08
2022-08-03T12:17:14.907Z,34.35
2022-08-03T12:19:45.408Z,34.19
2022-08-03T12:22:12.097Z,33.82
2022-08-03T12:24:47.481Z,33.66
2022-08-03T12:27:24.492Z,33.19
2022-08-03T12:29:58.143Z,33.26
2022-08-03T12:32:26.497Z,33.75
2022-08-03T12:34:53.327Z,34.21
2022-08-03T12:37:22.938Z,34.62
2022-08-03T12:40:03.577Z,34.79
2022-08-03T12:42:39.246Z,35.02
2022-08-03T12:45:22.444Z,35.07
2022-08-03T12:47:53.932Z,35.02
2022-08-03T12:50:27.117Z,35.26
2022-08-03T12:52:54.405Z,35.09
2022-08-03T12:55:22.451Z,35.06
2022-08-03T12:57:49.577Z,34.88
2022-08-03T13:00:21.514Z,34.95
2022-08-03T13:03:38.650Z,35.17
2022-08-03T13:05:52.643Z,34.95
2022-08-03T13:08:24.472Z,34.66
2022-08-03T13:10:53.816Z,34.63
2022-08-03T13:13:37.972Z,34.73
2022-08-03T13:16:04.576Z,34.76
2022-08-03T13:18:31.166Z,34.77
2022-08-03T13:20:57.572Z,34.75
2022-08-03T13:23:24.169Z,35.01
2022-08-03T13:25:55.186Z,34.77
2022-08-03T13:28:23.023Z,34.65
2022-08-03T13:30:49.699Z,34.43
2022-08-03T13:33:16.113Z,34.50
2022-08-03T13:35:42.617Z,34.72
2022-08-03T13:38:09.242Z,34.64
2022-08-03T13:40:42.294Z,34.59
2022-08-03T13:43:09.093Z,34.66
2022-08-03T13:45:36.227Z,34.66
2022-08-03T13:48:02.744Z,34.32
2022-08-03T13:50:30.168Z,34.53
2022-08-03T13:52:57.910Z,34.58
2022-08-03T13:55:25.075Z,34.34
2022-08-03T13:58:11.474Z,34.17
2022-08-03T14:00:39.697Z,33.66
2022-08-03T14:03:13.164Z,33.92
2022-08-03T14:05:42.390Z,34.06
2022-08-03T14:08:09.578Z,34.02
2022-08-03T14:10:38.352Z,34.19
2022-08-03T14:13:05.766Z,34.34
2022-08-03T14:15:37.778Z,34.27
2022-08-03T14:18:12.887Z,34.40
2022-08-03T14:20:49.140Z,34.65
2022-08-03T14:23:20.903Z,34.75
2022-08-03T14:25:51.460Z,34.66
2022-08-03T14:28:23.891Z,34.72
2022-08-03T14:30:54.434Z,34.55
2022-08-03T14:33:21.590Z,34.28
2022-08-03T14:35:48.966Z,34.08
2022-08-03T14:38:15.909Z,34.15
2022-08-03T14:40:50.150Z,34.25
2022-08-03T14:43:23.416Z,34.36
2022-08-03T14:45:53.703Z,34.45
2022-08-03T14:50:32.949Z,34.32
2022-08-03T14:51:16.802Z,33.75
2022-08-03T14:53:43.499Z,33.52
2022-08-03T14:56:10.926Z,33.57
2022-08-03T14:58:38.342Z,33.40
2022-08-03T15:02:03.286Z,33.03
2022-08-03T15:03:51.499Z,33.33
2022-08-03T15:06:18.005Z,33.21
2022-08-03T15:08:55.501Z,32.95
2022-08-03T15:11:30.897Z,32.66
2022-08-03T15:13:57.391Z,32.56
2022-08-03T15:16:23.850Z,32.40
2022-08-03T15:18:56.688Z,32.55
2022-08-03T15:21:46.559Z,32.79
2022-08-03T15:24:09.643Z,32.94
2022-08-03T15:26:41.055Z,32.89
2022-08-03T15:29:08.317Z,33.13
2022-08-03T15:31:34.845Z,33.17
2022-08-03T15:34:01.311Z,33.22
2022-08-03T15:36:27.773Z,32.70
2022-08-03T15:38:54.238Z,32.80
2022-08-03T15:41:20.739Z,32.84
2022-08-03T15:43:47.734Z,32.98
2022-08-03T15:46:30.283Z,33.00
2022-08-03T15:48:57.085Z,32.90
2022-08-03T15:51:23.620Z,33.14
2022-08-03T15:53:50.189Z,33.17
2022-08-03T15:56:18.713Z,33.20
2022-08-03T15:59:04.665Z,33.14
2022-08-03T16:01:32.875Z,33.19
2022-08-03T16:03:59.581Z,33.33
2022-08-03T16:06:29.918Z,33.33
2022-08-03T16:09:04.865Z,33.64
2022-08-03T16:11:31.757Z,33.50
2022-08-03T16:14:13.797Z,33.31
2022-08-03T16:16:45.297Z,33.02
2022-08-03T16:19:13.161Z,32.70
2022-08-03T16:21:47.339Z,32.74
2022-08-03T16:24:17.449Z,32.86
2022-08-03T16:26:46.614Z,33.01
2022-08-03T16:29:22.420Z,32.79
2022-08-03T16:31:50.891Z,32.75
2022-08-03T16:34:17.848Z,32.66
2022-08-03T16:36:45.578Z,32.48
2022-08-03T16:39:12.035Z,32.42
2022-08-03T16:41:54.155Z,32.68
2022-08-03T16:44:25.656Z,32.58
2022-08-03T16:46:53.669Z,32.82
2022-08-03T16:49:55.468Z,32.79
2022-08-03T16:52:07.176Z,32.84
2022-08-03T16:54:33.937Z,32.93
2022-08-03T16:57:01.274Z,32.97
2022-08-03T16:59:36.164Z,32.74
2022-08-03T17:02:09.924Z,32.54
2022-08-03T17:04:37.020Z,32.36
2022-08-03T17:07:07.763Z,32.34
2022-08-03T17:09:38.270Z,32.17
2022-08-03T17:12:10.889Z,32.15
2022-08-03T17:14:38.080Z,32.17
2022-08-03T17:17:08.548Z,32.05
2022-08-03T17:19:47.261Z,32.05
2022-08-03T17:22:18.439Z,32.20
2022-08-03T17:24:52.703Z,32.37
2022-08-03T17:28:49.246Z,32.42
2022-08-03T17:30:14.840Z,32.42
2022-08-03T17:32:56.538Z,32.39
2022-08-03T17:35:36.431Z,32.41
2022-08-03T17:38:05.872Z,32.41
2022-08-03T17:40:33.296Z,32.32
2022-08-03T17:44:14.887Z,32.30
2022-08-03T17:45:52.767Z,32.34
2022-08-03T17:48:21.441Z,32.34
2022-08-03T17:50:58.652Z,32.31
2022-08-03T17:53:31.201Z,32.29
2022-08-03T17:56:40.696Z,32.25
2022-08-03T17:59:50.738Z,32.17
2022-08-03T18:02:51.936Z,32.12
2022-08-03T18:05:21.813Z,32.02
2022-08-03T18:08:00.913Z,31.95
2022-08-03T18:10:35.112Z,31.87
2022-08-03T18:13:10.950Z,31.78
2022-08-03T18:15:42.695Z,31.70
2022-08-03T18:18:11.621Z,31.59
2022-08-03T18:20:41.568Z,31.46
2022-08-03T18:23:10.876Z,31.38
2022-08-03T18:25:56.241Z,31.28
2022-08-03T18:28:28.887Z,31.14
2022-08-03T18:30:57.652Z,31.01
2022-08-03T18:34:17.446Z,30.86
2022-08-03T18:36:29.433Z,30.72
2022-08-03T18:38:58.366Z,30.59
2022-08-03T18:41:32.818Z,30.49
2022-08-03T18:44:06.825Z,30.38
2022-08-03T18:46:35.641Z,30.18
2022-08-03T18:49:16.905Z,29.99
2022-08-03T18:51:46.387Z,29.90
2022-08-03T18:54:45.555Z,29.76
2022-08-03T18:57:22.113Z,29.69
2022-08-03T19:00:05.920Z,29.60
2022-08-03T19:02:49.304Z,29.49
2022-08-03T19:05:22.110Z,29.37
2022-08-03T19:07:58.373Z,29.23
2022-08-03T19:10:31.142Z,29.13
2022-08-03T19:13:36.122Z,28.99
2022-08-03T19:16:41.968Z,28.77
2022-08-03T19:19:21.303Z,28.69
2022-08-03T19:21:51.526Z,28.59
2022-08-03T19:24:22.300Z,28.44
2022-08-03T19:26:55.927Z,28.34
2022-08-03T19:29:23.972Z,28.25
2022-08-03T19:32:14.961Z,28.12
2022-08-03T19:34:42.868Z,28.00
2022-08-03T19:37:15.419Z,27.79
2022-08-03T19:39:43.200Z,27.66
2022-08-03T19:42:20.486Z,27.54
2022-08-03T19:45:13.883Z,27.50
2022-08-03T19:47:47.443Z,27.43
2022-08-03T19:50:18.540Z,27.29
2022-08-03T19:52:47.834Z,27.12
2022-08-03T19:55:17.857Z,27.04
2022-08-03T19:57:49.304Z,26.99
2022-08-03T20:00:19.809Z,26.93
2022-08-03T20:02:47.239Z,26.89
2022-08-03T20:05:18.361Z,26.80
2022-08-03T20:07:47.808Z,26.72
2022-08-03T20:10:16.511Z,26.62
2022-08-03T20:12:44.730Z,26.53
2022-08-03T20:15:11.648Z,26.51
2022-08-03T20:17:56.854Z,26.48
2022-08-03T20:20:29.440Z,26.41
2022-08-03T20:22:58.244Z,26.35
2022-08-03T20:25:38.919Z,26.28
2022-08-03T20:28:14.137Z,26.19
2022-08-03T20:30:46.377Z,26.12
2022-08-03T20:33:18.278Z,26.05
2022-08-03T20:35:49.023Z,25.99
2022-08-03T20:38:19.569Z,25.81
2022-08-03T20:40:48.097Z,25.70
2022-08-03T20:43:15.846Z,25.61
2022-08-03T20:45:59.480Z,25.60
2022-08-03T20:48:29.026Z,25.50
2022-08-03T20:50:56.672Z,25.42
2022-08-03T20:53:57.381Z,25.35
2022-08-03T20:56:10.046Z,25.15
2022-08-03T20:58:36.977Z,25.04
2022-08-03T21:01:08.177Z,25.00
2022-08-03T21:03:41.059Z,24.90
2022-08-03T21:06:27.791Z,24.84
2022-08-03T21:09:04.243Z,24.81
2022-08-03T21:11:41.757Z,24.78
2022-08-03T21:14:33.216Z,24.76
2022-08-03T21:17:09.400Z,24.68
2022-08-03T21:19:52.157Z,24.62
2022-08-03T21:22:22.790Z,24.54
2022-08-03T21:24:54.122Z,24.48
2022-08-03T21:27:24.080Z,24.40
2022-08-03T21:29:53.288Z,24.34
2022-08-03T21:32:32.509Z,24.23
2022-08-03T21:34:59.757Z,24.17
2022-08-03T21:37:26.836Z,24.08
2022-08-03T21:39:54.868Z,24.09
2022-08-03T21:42:23.981Z,24.08
2022-08-03T21:44:54.036Z,23.98
2022-08-03T21:47:24.659Z,23.93
2022-08-03T21:50:08.523Z,23.86
2022-08-03T21:52:44.694Z,23.84
2022-08-03T21:55:18.359Z,23.81
2022-08-03T21:57:52.080Z,23.80
2022-08-03T22:00:20.361Z,23.75
2022-08-03T22:02:56.164Z,23.71
2022-08-03T22:05:42.878Z,23.67
2022-08-03T22:08:14.208Z,23.56
2022-08-03T22:10:43.557Z,23.52
2022-08-03T22:13:11.417Z,23.51
2022-08-03T22:15:37.852Z,23.48
2022-08-03T22:18:05.316Z,23.42
2022-08-03T22:20:31.848Z,23.41
2022-08-03T22:23:02.635Z,23.41
2022-08-03T22:25:31.558Z,23.33
2022-08-03T22:28:00.650Z,23.23
2022-08-03T22:30:27.353Z,23.11
2022-08-03T22:32:56.292Z,23.08
2022-08-03T22:35:24.952Z,23.10
2022-08-03T22:37:55.484Z,23.09
2022-08-03T22:40:22.116Z,23.01
2022-08-03T22:42:50.494Z,22.92
2022-08-03T22:45:45.832Z,22.86
2022-08-03T22:48:08.219Z,22.84
2022-08-03T22:50:35.056Z,22.78
2022-08-03T22:53:01.661Z,22.77
2022-08-03T22:55:28.306Z,22.78
2022-08-03T22:57:56.105Z,22.76
2022-08-03T23:00:23.597Z,22.70
2022-08-03T23:02:51.935Z,22.69
2022-08-03T23:06:01.115Z,22.67
2022-08-03T23:08:14.717Z,22.59
2022-08-03T23:10:46.657Z,22.58
2022-08-03T23:13:16.996Z,22.53
2022-08-03T23:15:51.672Z,22.47
2022-08-03T23:18:22.156Z,22.38
2022-08-03T23:20:52.706Z,22.27
2022-08-03T23:23:20.591Z,22.30
2022-08-03T23:25:49.379Z,22.29
2022-08-03T23:28:16.515Z,22.24
2022-08-03T23:30:44.615Z,22.24
2022-08-03T23:33:15.383Z,22.23
2022-08-03T23:36:28.211Z,22.20
2022-08-03T23:38:45.103Z,22.18
2022-08-03T23:41:12.633Z,22.16
2022-08-03T23:43:51.339Z,22.12
2022-08-03T23:46:21.096Z,22.04
2022-08-03T23:48:47.744Z,22.00
2022-08-03T23:51:29.599Z,21.94
2022-08-03T23:54:22.320Z,21.93
2022-08-03T23:56:59.920Z,21.87
2022-08-03T23:59:41.839Z,21.83
